createdAt,value
2022-09-12T00:01:13.615Z,17.03
2022-09-12T00:03:40.718Z,20.60
2022-09-12T00:06:10.032Z,15.73
2022-09-12T00:08:36.769Z,19.33
2022-09-12T00:11:08.829Z,18.40
2022-09-12T00:13:41.290Z,15.50
2022-09-12T00:16:13.856Z,18.23
2022-09-12T00:18:40.274Z,18.60
2022-09-12T00:21:06.645Z,16.60
2022-09-12T00:23:33.350Z,18.83
2022-09-12T00:25:59.889Z,18.13
2022-09-12T00:28:26.370Z,16.67
2022-09-12T00:30:52.737Z,15.70
2022-09-12T00:33:19.116Z,15.27
2022-09-12T00:35:48.322Z,17.30
2022-09-12T00:38:16.602Z,16.00
2022-09-12T00:40:43.836Z,18.20
2022-09-12T00:43:15.532Z,16.80
2022-09-12T00:45:44.827Z,14.60
2022-09-12T00:48:22.450Z,17.33
2022-09-12T00:50:49.810Z,17.03
2022-09-12T00:53:16.703Z,17.37
2022-09-12T00:55:48.997Z,16.10
2022-09-12T00:58:30.360Z,17.27
2022-09-12T01:00:58.944Z,15.97
2022-09-12T01:03:26.621Z,15.23
2022-09-12T01:05:56.761Z,15.50
2022-09-12T01:08:24.821Z,17.63
2022-09-12T01:10:51.265Z,15.37
2022-09-12T01:13:17.859Z,14.47
2022-09-12T01:15:44.356Z,17.13
2022-09-12T01:18:22.016Z,18.60
2022-09-12T01:21:20.200Z,16.53
2022-09-12T01:24:12.473Z,18.03
2022-09-12T01:27:05.771Z,18.67
2022-09-12T01:30:14.793Z,17.23
2022-09-12T01:32:55.337Z,17.90
2022-09-12T01:35:29.486Z,19.40
2022-09-12T01:38:23.264Z,18.93
2022-09-12T01:41:09.282Z,17.17
2022-09-12T01:43:51.904Z,14.40
2022-09-12T01:46:22.914Z,17.60
2022-09-12T01:49:07.354Z,18.33
2022-09-12T01:51:44.703Z,17.90
2022-09-12T01:54:20.761Z,17.77
2022-09-12T01:56:51.679Z,18.23
2022-09-12T01:59:45.997Z,17.50
2022-09-12T02:02:24.440Z,15.77
2022-09-12T02:04:59.927Z,16.70
2022-09-12T02:07:35.783Z,15.67
2022-09-12T02:10:32.531Z,16.67
2022-09-12T02:13:08.905Z,16.27
2022-09-12T02:15:43.157Z,16.57
2022-09-12T02:18:18.338Z,14.30
2022-09-12T02:20:49.237Z,13.77
2022-09-12T02:23:29.094Z,16.90
2022-09-12T02:26:00.426Z,15.07
2022-09-12T02:28:31.877Z,13.47
2022-09-12T02:31:24.619Z,12.70
2022-09-12T02:34:04.581Z,19.07
2022-09-12T02:36:34.422Z,16.57
2022-09-12T02:39:01.361Z,14.50
2022-09-12T02:41:28.099Z,14.63
2022-09-12T02:43:54.762Z,14.27
2022-09-12T02:46:31.877Z,18.30
2022-09-12T02:48:58.514Z,14.50
2022-09-12T02:51:26.053Z,17.63
2022-09-12T02:53:53.360Z,18.60
2022-09-12T02:56:41.617Z,18.80
2022-09-12T02:59:10.929Z,18.60
2022-09-12T03:02:05.141Z,19.87
2022-09-12T03:04:40.315Z,17.30
2022-09-12T03:07:16.835Z,17.20
2022-09-12T03:09:49.268Z,17.60
2022-09-12T03:13:00.835Z,17.93
2022-09-12T03:15:33.169Z,16.37
2022-09-12T03:18:23.970Z,17.30
2022-09-12T03:21:12.157Z,19.00
2022-09-12T03:24:06.151Z,18.57
2022-09-12T03:26:46.096Z,19.47
2022-09-12T03:29:15.023Z,17.33
2022-09-12T03:31:52.984Z,17.17
2022-09-12T03:34:20.869Z,17.23
2022-09-12T03:36:48.069Z,18.10
2022-09-12T03:39:15.083Z,17.70
2022-09-12T03:41:41.511Z,17.73
2022-09-12T03:44:07.943Z,14.70
2022-09-12T03:46:34.873Z,15.63
2022-09-12T03:49:01.538Z,18.83
2022-09-12T03:51:28.788Z,19.00
2022-09-12T03:53:55.396Z,14.80
2022-09-12T03:56:21.761Z,19.00
2022-09-12T03:58:48.113Z,17.37
2022-09-12T04:01:17.391Z,18.93
2022-09-12T04:03:45.895Z,16.63
2022-09-12T04:06:15.143Z,19.77
2022-09-12T04:08:42.533Z,19.97
2022-09-12T04:11:14.163Z,18.80
2022-09-12T04:13:42.263Z,16.30
2022-09-12T04:16:09.957Z,20.40
2022-09-12T04:18:36.529Z,19.83
2022-09-12T04:21:07.604Z,19.37
2022-09-12T04:23:34.458Z,19.17
2022-09-12T04:26:03.024Z,17.70
2022-09-12T04:28:30.457Z,17.10
2022-09-12T04:31:02.714Z,18.07
2022-09-12T04:33:29.105Z,17.40
2022-09-12T04:35:55.459Z,17.47
2022-09-12T04:38:21.830Z,14.50
2022-09-12T04:40:48.345Z,17.27
2022-09-12T04:43:14.796Z,20.47
2022-09-12T04:45:41.262Z,22.50
2022-09-12T04:48:07.643Z,18.70
2022-09-12T04:50:34.034Z,19.13
2022-09-12T04:53:00.433Z,20.33
2022-09-12T04:55:27.331Z,18.20
2022-09-12T04:57:53.725Z,17.67
2022-09-12T05:00:20.554Z,20.40
2022-09-12T05:02:47.033Z,18.30
2022-09-12T05:05:13.402Z,23.80
2022-09-12T05:07:40.370Z,18.20
2022-09-12T05:10:07.331Z,19.30
2022-09-12T05:12:33.879Z,21.33
2022-09-12T05:15:00.234Z,19.00
2022-09-12T05:17:29.519Z,20.57
2022-09-12T05:19:55.922Z,19.70
2022-09-12T05:22:22.771Z,28.00
2022-09-12T05:24:54.019Z,20.90
2022-09-12T05:27:20.394Z,19.37
2022-09-12T05:29:46.825Z,20.03
2022-09-12T05:32:13.238Z,20.50
2022-09-12T05:34:40.420Z,18.00
2022-09-12T05:37:06.825Z,22.10
2022-09-12T05:39:33.693Z,24.40
2022-09-12T05:42:00.038Z,20.70
2022-09-12T05:44:26.718Z,20.77
2022-09-12T05:46:53.590Z,19.07
2022-09-12T05:49:21.357Z,22.10
2022-09-12T05:51:47.778Z,22.13
2022-09-12T05:54:19.320Z,22.97
2022-09-12T05:56:46.130Z,29.40
2022-09-12T05:59:20.889Z,33.27
2022-09-12T06:01:48.441Z,27.47
2022-09-12T06:04:16.023Z,30.40
2022-09-12T06:06:45.120Z,31.10
2022-09-12T06:09:13.635Z,30.50
2022-09-12T06:11:43.476Z,33.43
2022-09-12T06:14:12.211Z,29.40
2022-09-12T06:16:39.671Z,32.57
2022-09-12T06:19:32.552Z,29.33
2022-09-12T06:21:58.928Z,28.67
2022-09-12T06:24:25.283Z,36.10
2022-09-12T06:26:52.809Z,28.67
2022-09-12T06:29:19.642Z,30.93
2022-09-12T06:31:46.207Z,34.60
2022-09-12T06:34:14.678Z,30.90
2022-09-12T06:36:45.181Z,31.20
2022-09-12T06:39:14.598Z,27.23
2022-09-12T06:41:44.071Z,31.13
2022-09-12T06:44:15.864Z,30.87
2022-09-12T06:46:42.397Z,28.07
2022-09-12T06:49:08.782Z,28.47
2022-09-12T06:51:36.276Z,31.50
2022-09-12T06:54:03.681Z,33.43
2022-09-12T06:56:30.205Z,29.50
2022-09-12T06:58:58.299Z,31.37
2022-09-12T07:01:25.960Z,34.95
2022-09-12T07:03:55.043Z,28.90
2022-09-12T07:06:24.475Z,28.10
2022-09-12T07:08:51.073Z,29.83
2022-09-12T07:11:19.149Z,36.73
2022-09-12T07:13:47.387Z,45.03
2022-09-12T07:16:19.253Z,30.93
2022-09-12T07:18:59.851Z,33.23
2022-09-12T07:21:27.398Z,32.83
2022-09-12T07:23:57.884Z,30.60
2022-09-12T07:26:26.576Z,37.60
2022-09-12T07:28:54.610Z,36.37
2022-09-12T07:31:23.797Z,35.83
2022-09-12T07:33:54.628Z,31.40
2022-09-12T07:36:23.459Z,33.17
2022-09-12T07:38:57.196Z,30.57
2022-09-12T07:41:26.663Z,32.03
2022-09-12T07:43:54.435Z,32.07
2022-09-12T07:46:22.405Z,29.57
2022-09-12T07:48:53.038Z,30.47
2022-09-12T07:51:20.292Z,34.10
2022-09-12T07:53:47.206Z,30.47
2022-09-12T07:56:13.718Z,33.67
2022-09-12T07:58:41.926Z,33.83
2022-09-12T08:01:19.892Z,29.90
2022-09-12T08:03:48.588Z,32.10
2022-09-12T08:06:19.956Z,31.00
2022-09-12T08:08:47.869Z,38.67
2022-09-12T08:11:16.308Z,35.13
2022-09-12T08:13:43.233Z,34.93
2022-09-12T08:16:15.600Z,34.47
2022-09-12T08:18:42.195Z,32.10
2022-09-12T08:21:13.729Z,30.50
2022-09-12T08:23:40.237Z,34.50
2022-09-12T08:26:07.098Z,30.00
2022-09-12T08:28:35.126Z,30.13
2022-09-12T08:31:02.230Z,31.90
2022-09-12T08:33:33.090Z,30.43
2022-09-12T08:36:17.491Z,29.40
2022-09-12T08:38:46.078Z,28.00
2022-09-12T08:41:18.363Z,30.40
2022-09-12T08:44:11.583Z,25.97
2022-09-12T08:47:05.182Z,28.70
2022-09-12T08:49:52.874Z,27.33
2022-09-12T08:52:26.545Z,28.27
2022-09-12T08:54:53.802Z,27.87
2022-09-12T08:57:20.650Z,26.40
2022-09-12T08:59:48.215Z,27.30
2022-09-12T09:02:45.843Z,28.10
2022-09-12T09:05:45.804Z,27.23
2022-09-12T09:08:31.019Z,24.07
2022-09-12T09:11:33.142Z,25.37
2022-09-12T09:14:30.393Z,25.63
2022-09-12T09:16:58.598Z,24.50
2022-09-12T09:19:30.450Z,24.90
2022-09-12T09:22:02.037Z,22.83
2022-09-12T09:24:42.856Z,22.67
2022-09-12T09:27:40.522Z,23.30
2022-09-12T09:30:17.442Z,22.37
2022-09-12T09:32:47.855Z,19.97
2022-09-12T09:35:33.143Z,23.03
2022-09-12T09:38:19.531Z,22.87
2022-09-12T09:40:52.397Z,18.10
2022-09-12T09:43:24.412Z,21.37
2022-09-12T09:45:52.653Z,18.30
2022-09-12T09:48:24.091Z,16.13
2022-09-12T09:50:50.827Z,16.33
2022-09-12T09:53:50.175Z,16.17
2022-09-12T09:56:36.795Z,18.87
2022-09-12T09:59:15.168Z,16.40
2022-09-12T10:02:03.953Z,14.80
2022-09-12T10:04:40.602Z,14.77
2022-09-12T10:07:18.733Z,14.87
2022-09-12T10:10:23.337Z,17.57
2022-09-12T10:12:50.385Z,15.57
2022-09-12T10:15:22.457Z,14.47
2022-09-12T10:17:50.885Z,13.43
2022-09-12T10:20:41.008Z,13.30
2022-09-12T10:23:41.179Z,10.67
2022-09-12T10:26:16.270Z,11.50
2022-09-12T10:28:50.617Z,11.23
2022-09-12T10:31:29.476Z,10.33
2022-09-12T10:33:59.606Z,10.17
2022-09-12T10:36:35.199Z,10.57
2022-09-12T10:39:02.588Z,12.53
2022-09-12T10:41:37.897Z,10.30
2022-09-12T10:44:13.214Z,11.60
2022-09-12T10:46:40.360Z,11.60
2022-09-12T10:49:31.179Z,10.70
2022-09-12T10:52:16.166Z,11.07
2022-09-12T10:54:43.334Z,11.77
2022-09-12T10:57:31.065Z,10.40
2022-09-12T11:00:15.909Z,10.00
2022-09-12T11:02:57.407Z,9.30
2022-09-12T11:05:38.795Z,12.17
2022-09-12T11:08:12.949Z,9.73
2022-09-12T11:11:04.624Z,10.07
2022-09-12T11:14:12.921Z,9.50
2022-09-12T11:17:01.540Z,8.27
2022-09-12T11:19:56.146Z,8.40
2022-09-12T11:22:57.641Z,8.70
2022-09-12T11:25:45.260Z,7.60
2022-09-12T11:28:17.770Z,9.53
2022-09-12T11:31:16.454Z,8.93
2022-09-12T11:33:56.921Z,11.27
2022-09-12T11:36:51.233Z,7.77
2022-09-12T11:39:23.834Z,7.97
2022-09-12T11:41:58.116Z,8.40
2022-09-12T11:44:28.614Z,7.77
2022-09-12T11:46:55.003Z,8.70
2022-09-12T11:49:35.626Z,8.00
2022-09-12T11:52:14.545Z,8.27
2022-09-12T11:54:44.688Z,8.83
2022-09-12T11:57:32.293Z,7.70
2022-09-12T12:00:04.571Z,7.70
2022-09-12T12:02:37.115Z,7.33
2022-09-12T12:05:08.064Z,8.73
2022-09-12T12:07:45.790Z,6.80
2022-09-12T12:10:43.085Z,7.27
2022-09-12T12:13:15.348Z,7.63
2022-09-12T12:15:48.503Z,6.30
2022-09-12T12:18:19.554Z,7.27
2022-09-12T12:20:46.637Z,7.00
2022-09-12T12:23:31.903Z,6.37
2022-09-12T12:26:03.729Z,6.40
2022-09-12T12:28:42.218Z,6.30
2022-09-12T12:31:10.492Z,6.53
2022-09-12T12:33:40.012Z,6.53
2022-09-12T12:36:09.650Z,6.40
2022-09-12T12:38:40.782Z,5.60
2022-09-12T12:41:19.167Z,6.17
2022-09-12T12:43:54.535Z,6.77
2022-09-12T12:46:23.937Z,8.73
2022-09-12T12:48:58.439Z,5.27
2022-09-12T12:51:34.118Z,5.67
2022-09-12T12:54:02.973Z,5.33
2022-09-12T12:56:35.025Z,5.10
2022-09-12T12:59:06.825Z,6.23
2022-09-12T13:01:40.864Z,5.00
2022-09-12T13:04:19.999Z,4.63
2022-09-12T13:06:58.367Z,4.90
2022-09-12T13:09:34.263Z,5.80
2022-09-12T13:12:08.560Z,6.67
2022-09-12T13:14:48.509Z,5.20
2022-09-12T13:17:25.827Z,5.63
2022-09-12T13:20:26.058Z,5.00
2022-09-12T13:22:50.524Z,4.53
2022-09-12T13:25:36.070Z,5.80
2022-09-12T13:28:07.408Z,4.73
2022-09-12T13:30:36.868Z,5.10
2022-09-12T13:33:11.555Z,6.70
2022-09-12T13:35:54.805Z,4.23
2022-09-12T13:38:48.574Z,4.20
2022-09-12T13:41:35.579Z,4.57
2022-09-12T13:44:03.677Z,4.33
2022-09-12T13:46:33.917Z,4.60
2022-09-12T13:49:06.201Z,4.33
2022-09-12T13:51:32.784Z,4.27
2022-09-12T13:54:04.061Z,3.93
2022-09-12T13:56:30.483Z,4.97
2022-09-12T13:59:00.237Z,6.37
2022-09-12T14:01:47.252Z,3.57
2022-09-12T14:04:39.839Z,3.43
2022-09-12T14:07:23.392Z,3.33
2022-09-12T14:09:56.075Z,2.83
2022-09-12T14:12:30.193Z,3.07
2022-09-12T14:14:57.251Z,3.00
2022-09-12T14:17:37.134Z,3.00
2022-09-12T14:20:16.118Z,4.40
2022-09-12T14:22:42.636Z,2.83
2022-09-12T14:25:17.711Z,4.40
2022-09-12T14:27:50.620Z,4.87
2022-09-12T14:30:27.171Z,1.93
2022-09-12T14:33:18.365Z,5.17
2022-09-12T14:35:47.790Z,4.73
2022-09-12T14:38:23.630Z,3.20
2022-09-12T14:41:02.477Z,1.93
2022-09-12T14:43:31.730Z,2.47
2022-09-12T14:46:06.404Z,2.10
2022-09-12T14:48:42.326Z,1.60
2022-09-12T14:51:22.183Z,3.13
2022-09-12T14:53:49.875Z,2.00
2022-09-12T14:56:16.511Z,1.73
2022-09-12T14:58:43.173Z,3.53
2022-09-12T15:01:12.615Z,5.10
2022-09-12T15:03:44.877Z,3.90
2022-09-12T15:06:22.816Z,6.00
2022-09-12T15:08:49.345Z,2.00
2022-09-12T15:11:15.700Z,2.30
2022-09-12T15:13:42.340Z,3.43
2022-09-12T15:16:11.471Z,1.90
2022-09-12T15:18:38.770Z,2.00
2022-09-12T15:21:10.704Z,1.50
2022-09-12T15:23:50.883Z,3.50
2022-09-12T15:26:20.326Z,1.87
2022-09-12T15:28:46.793Z,2.73
2022-09-12T15:31:23.473Z,2.90
2022-09-12T15:33:49.945Z,2.17
2022-09-12T15:36:19.110Z,4.50
2022-09-12T15:38:46.687Z,1.50
2022-09-12T15:41:19.510Z,1.63
2022-09-12T15:43:46.732Z,2.03
2022-09-12T15:46:15.225Z,2.20
2022-09-12T15:48:41.655Z,2.47
2022-09-12T15:51:15.440Z,1.93
2022-09-12T15:53:42.951Z,1.53
2022-09-12T15:56:09.483Z,1.90
2022-09-12T15:58:36.177Z,2.00
2022-09-12T16:01:02.651Z,2.60
2022-09-12T16:03:29.971Z,2.03
2022-09-12T16:05:59.018Z,2.03
2022-09-12T16:08:25.641Z,2.33
2022-09-12T16:10:56.034Z,2.13
2022-09-12T16:13:24.049Z,2.70
2022-09-12T16:15:51.078Z,3.13
2022-09-12T16:18:17.491Z,2.30
2022-09-12T16:20:43.992Z,2.23
2022-09-12T16:23:13.506Z,2.20
2022-09-12T16:25:40.630Z,2.60
2022-09-12T16:28:07.281Z,2.30
2022-09-12T16:30:34.611Z,2.37
2022-09-12T16:33:01.536Z,2.40
2022-09-12T16:35:27.913Z,4.07
2022-09-12T16:37:54.367Z,4.53
2022-09-12T16:40:20.798Z,2.70
2022-09-12T16:42:47.240Z,4.63
2022-09-12T16:45:13.901Z,2.60
2022-09-12T16:47:40.391Z,2.90
2022-09-12T16:50:07.520Z,4.10
2022-09-12T16:52:35.046Z,3.07
2022-09-12T16:55:01.397Z,2.13
2022-09-12T16:57:27.753Z,2.70
2022-09-12T16:59:54.112Z,2.50
2022-09-12T17:02:20.562Z,2.50
2022-09-12T17:04:46.939Z,2.27
2022-09-12T17:07:13.300Z,2.73
2022-09-12T17:09:39.776Z,3.20
2022-09-12T17:12:06.314Z,2.43
2022-09-12T17:14:32.753Z,2.60
2022-09-12T17:16:59.136Z,2.57
2022-09-12T17:19:29.519Z,3.90
2022-09-12T17:21:57.564Z,6.20
2022-09-12T17:24:24.948Z,2.83
2022-09-12T17:26:51.779Z,2.67
2022-09-12T17:29:18.242Z,2.37
2022-09-12T17:31:45.439Z,2.87
2022-09-12T17:34:16.211Z,5.80
2022-09-12T17:36:44.463Z,2.83
2022-09-12T17:39:12.345Z,2.30
2022-09-12T17:41:39.476Z,2.03
2022-09-12T17:44:07.281Z,2.20
2022-09-12T17:46:36.704Z,3.27
2022-09-12T17:49:06.591Z,4.33
2022-09-12T17:51:33.027Z,3.40
2022-09-12T17:54:11.787Z,2.40
2022-09-12T17:56:39.404Z,2.97
2022-09-12T17:59:07.450Z,3.57
2022-09-12T18:01:52.789Z,5.00
2022-09-12T18:04:20.043Z,2.88
2022-09-12T18:06:49.184Z,2.57
2022-09-12T18:09:21.426Z,3.20
2022-09-12T18:11:48.764Z,2.60
2022-09-12T18:14:17.215Z,2.67
2022-09-12T18:16:44.476Z,3.27
2022-09-12T18:19:11.252Z,5.37
2022-09-12T18:21:38.221Z,5.33
2022-09-12T18:24:05.269Z,3.60
2022-09-12T18:26:32.456Z,3.23
2022-09-12T18:28:59.040Z,2.77
2022-09-12T18:31:28.933Z,5.30
2022-09-12T18:33:57.108Z,3.13
2022-09-12T18:36:24.138Z,2.87
2022-09-12T18:38:50.835Z,2.70
2022-09-12T18:41:20.251Z,3.47
2022-09-12T18:43:47.210Z,3.47
2022-09-12T18:46:18.861Z,2.67
2022-09-12T18:48:46.295Z,3.10
2022-09-12T18:51:20.988Z,2.97
2022-09-12T18:53:52.879Z,3.33
2022-09-12T18:56:19.859Z,6.13
2022-09-12T18:58:50.839Z,3.27
2022-09-12T19:01:22.492Z,3.30
2022-09-12T19:03:49.455Z,4.00
2022-09-12T19:06:18.441Z,3.47
2022-09-12T19:08:45.112Z,4.10
2022-09-12T19:11:11.908Z,4.00
2022-09-12T19:13:41.243Z,5.03
2022-09-12T19:16:10.212Z,4.30
2022-09-12T19:18:38.513Z,4.03
2022-09-12T19:21:06.479Z,3.60
2022-09-12T19:23:34.211Z,3.83
2022-09-12T19:26:03.719Z,3.77
2022-09-12T19:28:30.973Z,4.57
2022-09-12T19:30:57.933Z,5.80
2022-09-12T19:33:24.769Z,6.93
2022-09-12T19:35:51.647Z,8.60
2022-09-12T19:38:18.720Z,7.30
2022-09-12T19:40:45.136Z,4.53
2022-09-12T19:43:11.965Z,4.20
2022-09-12T19:45:38.373Z,4.00
2022-09-12T19:48:04.813Z,4.20
2022-09-12T19:50:33.300Z,3.77
2022-09-12T19:52:59.816Z,7.00
2022-09-12T19:55:26.217Z,4.90
2022-09-12T19:57:53.870Z,3.90
2022-09-12T20:00:20.362Z,6.17
2022-09-12T20:02:50.455Z,4.30
2022-09-12T20:05:17.017Z,5.03
2022-09-12T20:07:43.438Z,4.67
2022-09-12T20:10:09.915Z,5.07
2022-09-12T20:12:36.381Z,4.60
2022-09-12T20:15:03.448Z,4.73
2022-09-12T20:17:29.882Z,4.40
2022-09-12T20:19:56.247Z,4.13
2022-09-12T20:22:22.611Z,6.73
2022-09-12T20:24:49.042Z,4.63
2022-09-12T20:27:15.495Z,6.00
2022-09-12T20:29:41.975Z,5.77
2022-09-12T20:32:08.379Z,4.70
2022-09-12T20:34:35.874Z,6.90
2022-09-12T20:37:02.381Z,8.40
2022-09-12T20:39:28.955Z,5.70
2022-09-12T20:41:55.413Z,6.00
2022-09-12T20:44:21.785Z,5.20
2022-09-12T20:46:48.275Z,4.80
2022-09-12T20:49:14.677Z,6.43
2022-09-12T20:51:41.068Z,4.03
2022-09-12T20:54:07.853Z,4.83
2022-09-12T20:56:37.415Z,4.90
2022-09-12T20:59:05.059Z,3.93
2022-09-12T21:01:32.351Z,4.13
2022-09-12T21:04:00.528Z,4.23
2022-09-12T21:06:27.426Z,4.37
2022-09-12T21:08:58.601Z,4.67
2022-09-12T21:11:25.402Z,4.50
2022-09-12T21:13:52.963Z,5.13
2022-09-12T21:16:21.426Z,5.17
2022-09-12T21:18:54.021Z,6.60
2022-09-12T21:21:21.047Z,9.00
2022-09-12T21:23:47.617Z,5.43
2022-09-12T21:26:13.970Z,6.13
2022-09-12T21:28:40.375Z,5.83
2022-09-12T21:31:07.052Z,5.40
2022-09-12T21:33:33.477Z,4.80
2022-09-12T21:36:05.092Z,4.83
2022-09-12T21:38:32.537Z,4.40
2022-09-12T21:41:13.669Z,4.30
2022-09-12T21:43:40.473Z,5.80
2022-09-12T21:46:08.303Z,9.13
2022-09-12T21:48:35.464Z,4.57
2022-09-12T21:51:02.232Z,5.57
2022-09-12T21:53:28.795Z,4.30
2022-09-12T21:55:55.241Z,4.80
2022-09-12T21:58:21.609Z,5.70
2022-09-12T22:00:48.024Z,3.60
2022-09-12T22:03:15.355Z,4.47
2022-09-12T22:05:41.747Z,6.20
2022-09-12T22:08:08.301Z,3.90
2022-09-12T22:10:34.735Z,4.30
2022-09-12T22:13:01.815Z,4.27
2022-09-12T22:15:43.841Z,6.27
2022-09-12T22:18:10.729Z,4.00
2022-09-12T22:20:37.071Z,4.00
2022-09-12T22:23:24.791Z,4.70
2022-09-12T22:25:55.629Z,5.13
2022-09-12T22:28:22.537Z,4.30
2022-09-12T22:30:48.913Z,4.50
2022-09-12T22:33:15.323Z,5.13
2022-09-12T22:35:42.320Z,7.30
2022-09-12T22:38:09.023Z,5.80
2022-09-12T22:40:35.445Z,5.70
2022-09-12T22:43:02.289Z,4.60
2022-09-12T22:45:28.732Z,4.10
2022-09-12T22:47:57.165Z,4.70
2022-09-12T22:50:25.699Z,4.10
2022-09-12T22:52:52.491Z,6.20
2022-09-12T22:55:18.858Z,6.10
2022-09-12T22:57:45.205Z,5.10
2022-09-12T23:00:12.213Z,5.27
2022-09-12T23:02:38.573Z,3.90
2022-09-12T23:05:05.837Z,4.97
2022-09-12T23:07:33.122Z,6.97
2022-09-12T23:09:59.498Z,6.47
2022-09-12T23:12:25.875Z,4.87
2022-09-12T23:14:52.268Z,5.47
2022-09-12T23:17:18.655Z,6.37
2022-09-12T23:19:45.394Z,6.70
2022-09-12T23:22:11.820Z,4.70
2022-09-12T23:24:38.339Z,4.73
2022-09-12T23:27:05.118Z,5.00
2022-09-12T23:29:34.284Z,5.73
2022-09-12T23:32:02.219Z,5.77
2022-09-12T23:34:29.163Z,5.93
2022-09-12T23:36:56.436Z,4.60
2022-09-12T23:39:23.363Z,4.30
2022-09-12T23:41:50.158Z,4.77
2022-09-12T23:44:16.508Z,4.80
2022-09-12T23:46:43.020Z,5.30
2022-09-12T23:49:09.486Z,5.50
2022-09-12T23:51:35.841Z,5.03
2022-09-12T23:54:02.586Z,4.23
2022-09-12T23:56:28.951Z,7.00
2022-09-12T23:58:55.288Z,4.70
